Portage, MI (49081)

8:53 AM EDT on August 30, 2015 (GMT -0400)
Austin Lake | | Change Station
CLOSE
Current Station
Personal Weather Station
Location: Portage, MI
Elevation: 869 ft
Nearby Weather Stations

Elev 869 ft 42.17 °N, 85.56 °W | Updated 9 seconds ago

Fog
Fog
67.5 °F
Feels Like 67.5 °F
N
0.0
Wind Variable Wind from WNW
Gusts 0.0 mph

Today
High -- | Low -- °F
--% Chance of Precip.
Yesterday
High -- | Low -- °F
Precip. -- in
7:05 AM 8:19 PM
Full, 99% visible
Pressure 30.06 in
Visibility 0.2 miles
Clouds
Dew Point 67 °F
Humidity 98%
Rainfall 0.01 in
Snow Depth Not available.
UV Not available.
Pollen 9.20 out of 12
Air Quality Not available.
Flu Activity Not available.
METAR KAZO 301153Z 19003KT 1/4SM R35/2400V3500FT FG VV002 19/19 A3006 RMK AO2 SLP177 70036 T01940189 10200 20189 53013
Pressure 30.06 in
Visibility 0.2 miles
Clouds
Dew Point 67 °F
Humidity 98%
Rainfall 0.01 in
Snow Depth Not available.
UV Not available.
Pollen 9.20 out of 12
Air Quality Not available.
Flu Activity Not available.
METAR KAZO 301153Z 19003KT 1/4SM R35/2400V3500FT FG VV002 19/19 A3006 RMK AO2 SLP177 70036 T01940189 10200 20189 53013

10-Day Weather Forecast

×

Almanac

Astronomy

Aug. 30, 2015 Rise Set
Actual Time
Civil Twilight
Nautical Twilight
Astronomical Twilight
Moon
Length of Visible Light
Length of Day
Tomorrow will be .
, % of the Moon is Illuminated

Today's Extremes

State Highs State Lows

Community

WunderPhotos

Upload Photos

1,850,940 photos uploaded!

WunderBlogs® & News

Nearby

Air Quality

  Air Quality AQ Index Pollutant
Not available.

Snow Depth

Station Depth Elevation

Earthquake Activity

City Distance Mag. Time & Date
Minimum magnitude displayed is 2.5.

Coastal Water Temperatures

Place Temperature

Stations

Nearby Weather Stations

Station Location Temp. Windchill Dew Point Humidity Wind Precip. Elev Updated Type